Time;durP1;ratioP1;P1;durP2;ratioP2;P2;SDS_P1;SDS_P2;PMS_P1;PMS_P2;Temp;Humidity;BMP_temperature;BMP_pressure;BME280_temperature;BME280_humidity;BME280_pressure;Samples;Min_cycle;Max_cycle;Signal;HPM_P1;HPM_P2
2022/10/24 00:02:14;;;;;;;12.02;4.85;;;;;;;;;;4881317;29;20052;-63
2022/10/24 00:04:40;;;;;;;20.10;5.55;;;;;;;;;;4880692;29;20562;-62
2022/10/24 00:07:07;;;;;;;17.08;4.95;;;;;;;;;;4881880;29;20049;-63
2022/10/24 00:09:34;;;;;;;21.73;5.05;;;;;;;;;;4881851;29;20117;-63
2022/10/24 00:12:01;;;;;;;17.25;5.78;;;;;;;;;;4879996;29;20097;-64
2022/10/24 00:14:27;;;;;;;13.98;4.47;;;;;;;;;;4881711;29;20044;-63
2022/10/24 00:16:54;;;;;;;23.42;5.57;;;;;;;;;;4881720;29;20517;-63
2022/10/24 00:19:20;;;;;;;18.48;4.80;;;;;;;;;;4881596;29;20045;-63
2022/10/24 00:21:46;;;;;;;16.45;5.00;;;;;;;;;;4881092;29;20509;-63
2022/10/24 00:24:13;;;;;;;15.20;5.57;;;;;;;;;;4881677;29;20049;-62
2022/10/24 00:26:39;;;;;;;23.23;5.10;;;;;;;;;;4881653;29;20049;-63
2022/10/24 00:29:06;;;;;;;13.02;4.82;;;;;;;;;;4880250;29;20724;-63
2022/10/24 00:31:32;;;;;;;24.98;5.80;;;;;;;;;;4881394;29;20571;-63
2022/10/24 00:33:59;;;;;;;18.20;5.65;;;;;;;;;;4881104;29;20664;-63
2022/10/24 00:36:26;;;;;;;18.05;5.55;;;;;;;;;;4881733;29;20444;-63
2022/10/24 00:38:53;;;;;;;17.75;6.32;;;;;;;;;;4880052;29;20549;-63
2022/10/24 00:41:20;;;;;;;15.77;6.50;;;;;;;;;;4881321;29;20037;-63
2022/10/24 00:43:47;;;;;;;14.80;4.82;;;;;;;;;;4879357;29;20055;-62
2022/10/24 00:46:15;;;;;;;22.15;5.68;;;;;;;;;;4881336;29;20063;-62
2022/10/24 00:48:46;;;;;;;21.92;5.40;;;;;;;;;;4881361;29;20053;-62
2022/10/24 00:51:20;;;;;;;14.82;5.35;;;;;;;;;;4881264;29;20460;-62
2022/10/24 00:53:48;;;;;;;15.48;5.22;;;;;;;;;;4879457;29;20067;-62
2022/10/24 00:56:15;;;;;;;19.60;4.78;;;;;;;;;;4879980;29;20060;-64
2022/10/24 00:58:43;;;;;;;14.88;5.22;;;;;;;;;;4881110;29;20045;-63
2022/10/24 01:01:10;;;;;;;21.15;5.10;;;;;;;;;;4880227;29;20425;-63
2022/10/24 01:03:37;;;;;;;21.98;5.75;;;;;;;;;;4880307;29;20132;-62
2022/10/24 01:06:15;;;;;;;19.27;4.40;;;;;;;;;;4881185;29;20552;-62
2022/10/24 01:08:45;;;;;;;22.40;5.47;;;;;;;;;;4880959;29;20498;-62
2022/10/24 01:11:30;;;;;;;14.07;5.10;;;;;;;;;;4880688;29;20037;-62
2022/10/24 01:14:11;;;;;;;14.27;4.97;;;;;;;;;;4880469;29;20064;-63
2022/10/24 01:17:01;;;;;;;25.65;5.70;;;;;;;;;;4880967;29;20113;-63
2022/10/24 01:19:30;;;;;;;16.70;4.47;;;;;;;;;;4879165;29;20091;-63
2022/10/24 01:22:01;;;;;;;15.13;5.45;;;;;;;;;;4880146;29;21092;-63
2022/10/24 01:24:27;;;;;;;14.90;5.10;;;;;;;;;;4879464;29;20049;-63
2022/10/24 01:27:07;;;;;;;19.52;4.90;;;;;;;;;;4880933;29;20041;-63
2022/10/24 01:29:34;;;;;;;16.70;5.93;;;;;;;;;;4880632;29;20053;-63
2022/10/24 01:32:04;;;;;;;17.90;5.53;;;;;;;;;;4878811;29;20045;-64
2022/10/24 01:34:39;;;;;;;22.70;6.05;;;;;;;;;;4880567;29;20144;-63
2022/10/24 01:37:13;;;;;;;15.85;4.78;;;;;;;;;;4880465;29;20053;-64
2022/10/24 01:39:42;;;;;;;16.02;5.05;;;;;;;;;;4879110;29;20053;-64
2022/10/24 01:42:13;;;;;;;15.65;4.85;;;;;;;;;;4879549;29;20486;-64
2022/10/24 01:44:40;;;;;;;19.98;4.75;;;;;;;;;;4880218;29;20498;-65
2022/10/24 01:47:09;;;;;;;16.67;5.10;;;;;;;;;;4880188;29;20565;-64
2022/10/24 01:49:38;;;;;;;13.43;5.35;;;;;;;;;;4880097;29;20049;-64
2022/10/24 01:52:07;;;;;;;13.07;4.70;;;;;;;;;;4878197;29;20056;-64
2022/10/24 01:54:35;;;;;;;14.10;5.57;;;;;;;;;;4879829;29;20505;-63
2022/10/24 01:57:01;;;;;;;13.88;4.88;;;;;;;;;;4878739;29;20079;-64
2022/10/24 01:59:27;;;;;;;14.00;5.18;;;;;;;;;;4880070;29;20045;-65
2022/10/24 02:01:57;;;;;;;15.55;5.15;;;;;;;;;;4879530;29;20051;-62
2022/10/24 02:04:24;;;;;;;13.13;4.82;;;;;;;;;;4879826;29;20502;-63
2022/10/24 02:06:53;;;;;;;16.13;4.70;;;;;;;;;;4879889;29;20036;-63
2022/10/24 02:09:20;;;;;;;16.75;5.15;;;;;;;;;;4879709;29;20117;-64
2022/10/24 02:11:47;;;;;;;20.30;5.90;;;;;;;;;;4877833;29;20049;-63
2022/10/24 02:14:19;;;;;;;17.90;4.72;;;;;;;;;;4879799;29;20097;-63
2022/10/24 02:16:46;;;;;;;17.95;5.57;;;;;;;;;;4879697;29;20087;-63
2022/10/24 02:19:13;;;;;;;16.50;5.78;;;;;;;;;;4878199;29;20041;-62
2022/10/24 02:21:52;;;;;;;17.55;5.20;;;;;;;;;;4878878;29;20065;-64
2022/10/24 02:24:32;;;;;;;14.98;5.25;;;;;;;;;;4877846;29;20045;-63
2022/10/24 02:27:13;;;;;;;17.27;6.30;;;;;;;;;;4878246;29;20131;-61
2022/10/24 02:29:45;;;;;;;18.30;6.47;;;;;;;;;;4879365;29;20101;-62
2022/10/24 02:32:18;;;;;;;14.88;5.18;;;;;;;;;;4878584;29;20041;-63
2022/10/24 02:34:45;;;;;;;18.50;5.30;;;;;;;;;;4879477;29;20562;-62
2022/10/24 02:37:12;;;;;;;18.10;5.75;;;;;;;;;;4878029;29;20109;-62
2022/10/24 02:39:39;;;;;;;16.27;5.85;;;;;;;;;;4879220;29;20089;-63
2022/10/24 02:42:07;;;;;;;15.73;5.68;;;;;;;;;;4878644;29;20104;-63
2022/10/24 02:44:34;;;;;;;16.70;5.72;;;;;;;;;;4879204;29;20083;-63
2022/10/24 02:47:02;;;;;;;13.55;5.03;;;;;;;;;;4879045;29;20554;-63
2022/10/24 02:49:29;;;;;;;12.70;5.45;;;;;;;;;;4879087;29;20049;-63
2022/10/24 02:51:55;;;;;;;20.70;6.00;;;;;;;;;;4878404;29;20060;-63
2022/10/24 02:54:22;;;;;;;13.88;4.80;;;;;;;;;;4878483;29;20486;-63
2022/10/24 02:56:50;;;;;;;19.55;5.43;;;;;;;;;;4878907;29;20053;-63
2022/10/24 02:59:17;;;;;;;15.70;4.88;;;;;;;;;;4877587;29;20057;-62
2022/10/24 03:01:43;;;;;;;17.58;6.15;;;;;;;;;;4876910;29;20049;-62
2022/10/24 03:04:10;;;;;;;19.77;9.20;;;;;;;;;;4877681;29;20460;-63
2022/10/24 03:06:36;;;;;;;16.70;5.72;;;;;;;;;;4877721;29;20096;-62
2022/10/24 03:09:03;;;;;;;14.65;5.68;;;;;;;;;;4878684;29;20574;-63
2022/10/24 03:11:29;;;;;;;12.57;5.45;;;;;;;;;;4878820;29;20118;-63
2022/10/24 03:13:55;;;;;;;12.63;5.15;;;;;;;;;;4878260;29;20702;-62
2022/10/24 03:16:22;;;;;;;20.88;7.03;;;;;;;;;;4879116;29;20127;-63
2022/10/24 03:18:48;;;;;;;18.77;6.65;;;;;;;;;;4879447;29;20458;-63
2022/10/24 03:21:15;;;;;;;16.00;6.07;;;;;;;;;;4879631;29;20570;-63
2022/10/24 03:23:41;;;;;;;11.93;5.57;;;;;;;;;;4878718;29;20462;-62
2022/10/24 03:26:07;;;;;;;22.60;7.15;;;;;;;;;;4878888;29;20113;-62
2022/10/24 03:28:34;;;;;;;26.38;5.65;;;;;;;;;;4879064;29;20041;-63
2022/10/24 03:31:00;;;;;;;22.08;6.10;;;;;;;;;;4878963;29;20051;-63
2022/10/24 03:33:27;;;;;;;13.05;5.43;;;;;;;;;;4877840;29;20041;-64
2022/10/24 03:35:54;;;;;;;14.60;5.20;;;;;;;;;;4877397;29;20569;-63
2022/10/24 03:38:21;;;;;;;14.73;6.07;;;;;;;;;;4878561;29;20052;-63
2022/10/24 03:40:48;;;;;;;19.23;6.20;;;;;;;;;;4861637;29;20060;-63
2022/10/24 03:43:14;;;;;;;20.25;6.20;;;;;;;;;;4878237;29;20048;-62
2022/10/24 03:45:41;;;;;;;13.43;5.60;;;;;;;;;;4878398;29;20101;-63
2022/10/24 03:48:07;;;;;;;21.92;6.65;;;;;;;;;;4878646;29;20041;-62
2022/10/24 03:50:34;;;;;;;18.92;5.90;;;;;;;;;;4878316;29;20454;-62
2022/10/24 03:53:00;;;;;;;22.42;6.90;;;;;;;;;;4877690;29;20077;-63
2022/10/24 03:55:27;;;;;;;18.08;6.57;;;;;;;;;;4876801;29;20578;-63
2022/10/24 03:57:54;;;;;;;13.23;6.03;;;;;;;;;;4878289;29;20470;-63
2022/10/24 04:03:09;;;;;;;23.00;7.07;;;;;;;;;;5043552;23;20053;-65
2022/10/24 04:05:36;;;;;;;18.02;6.10;;;;;;;;;;4878333;29;20076;-63
2022/10/24 04:08:07;;;;;;;24.98;5.75;;;;;;;;;;4878275;29;20045;-64
2022/10/24 04:10:34;;;;;;;18.05;5.97;;;;;;;;;;4876973;29;20517;-65
2022/10/24 04:13:00;;;;;;;17.00;6.00;;;;;;;;;;4877514;29;20053;-65
2022/10/24 04:15:26;;;;;;;17.20;6.13;;;;;;;;;;4876939;29;20049;-65
2022/10/24 04:17:53;;;;;;;16.77;6.10;;;;;;;;;;4876799;29;20061;-65
2022/10/24 04:20:21;;;;;;;24.05;6.07;;;;;;;;;;4876782;29;20056;-65
2022/10/24 04:22:48;;;;;;;23.17;6.55;;;;;;;;;;4877422;29;20044;-65
2022/10/24 04:25:14;;;;;;;22.88;6.07;;;;;;;;;;4876757;29;20501;-65
2022/10/24 04:27:41;;;;;;;17.42;5.93;;;;;;;;;;4878019;29;20097;-65
2022/10/24 04:30:08;;;;;;;20.00;6.05;;;;;;;;;;4876912;29;20048;-63
2022/10/24 04:32:42;;;;;;;20.05;6.63;;;;;;;;;;4876042;29;20184;-63
2022/10/24 04:35:09;;;;;;;18.10;5.70;;;;;;;;;;4877916;29;20052;-64
2022/10/24 04:37:35;;;;;;;20.83;5.45;;;;;;;;;;4876950;29;20097;-64
2022/10/24 04:40:02;;;;;;;23.58;6.03;;;;;;;;;;4877725;29;20555;-64
2022/10/24 04:42:28;;;;;;;17.67;6.22;;;;;;;;;;4877179;29;20041;-64
2022/10/24 04:44:54;;;;;;;15.73;6.15;;;;;;;;;;4877753;29;20120;-64
2022/10/24 04:47:21;;;;;;;18.80;6.18;;;;;;;;;;4880362;29;20037;-64
2022/10/24 04:49:47;;;;;;;23.83;6.07;;;;;;;;;;4881038;29;20045;-64
2022/10/24 04:52:14;;;;;;;14.35;5.75;;;;;;;;;;4879270;29;20048;-64
2022/10/24 04:54:40;;;;;;;21.98;6.68;;;;;;;;;;4880962;29;20447;-64
2022/10/24 04:57:07;;;;;;;17.35;4.90;;;;;;;;;;4879877;29;20041;-67
2022/10/24 04:59:33;;;;;;;17.05;5.18;;;;;;;;;;4879684;29;20140;-64
2022/10/24 05:02:00;;;;;;;16.23;5.57;;;;;;;;;;4879085;29;20053;-64
2022/10/24 05:04:26;;;;;;;19.67;6.32;;;;;;;;;;4880786;29;20041;-64
2022/10/24 05:06:53;;;;;;;15.13;5.03;;;;;;;;;;4879706;29;20073;-64
2022/10/24 05:09:19;;;;;;;15.57;6.20;;;;;;;;;;4879554;29;20056;-64
2022/10/24 05:11:45;;;;;;;18.52;5.30;;;;;;;;;;4880000;29;20053;-64
2022/10/24 05:14:13;;;;;;;15.20;4.78;;;;;;;;;;4880631;29;20049;-64
2022/10/24 05:16:39;;;;;;;15.05;5.43;;;;;;;;;;4880544;29;20045;-64
2022/10/24 05:19:06;;;;;;;16.27;5.15;;;;;;;;;;4879424;29;20056;-64
2022/10/24 05:21:32;;;;;;;14.15;6.35;;;;;;;;;;4880510;29;20052;-65
2022/10/24 05:23:59;;;;;;;20.48;6.38;;;;;;;;;;4880246;29;20060;-64
2022/10/24 05:26:25;;;;;;;18.05;5.63;;;;;;;;;;4864268;29;20105;-64
2022/10/24 05:28:51;;;;;;;14.48;5.28;;;;;;;;;;4880184;29;20041;-64
2022/10/24 05:31:18;;;;;;;13.57;5.15;;;;;;;;;;4880598;29;20048;-64
2022/10/24 05:33:44;;;;;;;22.77;5.50;;;;;;;;;;4880884;29;20049;-64
2022/10/24 05:36:11;;;;;;;18.95;5.43;;;;;;;;;;4879624;29;20049;-64
2022/10/24 05:38:37;;;;;;;20.30;5.72;;;;;;;;;;4880353;29;20045;-64
2022/10/24 05:41:04;;;;;;;13.70;4.68;;;;;;;;;;4879328;29;20045;-64
2022/10/24 05:43:30;;;;;;;16.83;4.90;;;;;;;;;;4879800;29;20049;-64
2022/10/24 05:45:56;;;;;;;14.18;4.53;;;;;;;;;;4879400;29;20045;-64
2022/10/24 05:48:23;;;;;;;16.15;5.03;;;;;;;;;;4879440;29;20049;-64
2022/10/24 05:50:49;;;;;;;14.30;5.20;;;;;;;;;;4880283;29;20091;-65
2022/10/24 05:53:15;;;;;;;14.60;5.05;;;;;;;;;;4878389;29;20049;-64
2022/10/24 05:55:42;;;;;;;14.45;5.38;;;;;;;;;;4863653;29;20147;-64
2022/10/24 05:58:08;;;;;;;17.20;5.70;;;;;;;;;;4878837;29;20076;-65
2022/10/24 06:00:35;;;;;;;15.25;5.43;;;;;;;;;;4879880;29;20073;-65
2022/10/24 06:03:01;;;;;;;18.83;5.10;;;;;;;;;;4877902;29;20110;-65
2022/10/24 06:05:28;;;;;;;23.02;6.70;;;;;;;;;;4878717;29;20105;-65
2022/10/24 06:07:54;;;;;;;17.60;5.32;;;;;;;;;;4878549;29;20455;-64
2022/10/24 06:10:20;;;;;;;14.63;5.00;;;;;;;;;;4879696;29;20060;-64
2022/10/24 06:12:47;;;;;;;13.20;5.18;;;;;;;;;;4879082;29;20431;-64
2022/10/24 06:15:14;;;;;;;18.17;5.45;;;;;;;;;;4879853;29;20048;-64
2022/10/24 06:17:40;;;;;;;14.70;5.47;;;;;;;;;;4878541;29;20061;-64
2022/10/24 06:20:07;;;;;;;15.75;5.75;;;;;;;;;;4878319;29;20045;-64
2022/10/24 06:22:33;;;;;;;18.38;5.25;;;;;;;;;;4878898;29;20040;-65
2022/10/24 06:25:00;;;;;;;14.30;5.47;;;;;;;;;;4879378;29;20048;-65
2022/10/24 06:27:27;;;;;;;15.77;6.65;;;;;;;;;;4879524;29;20045;-65
2022/10/24 06:29:53;;;;;;;16.10;5.60;;;;;;;;;;4879266;29;20045;-65
2022/10/24 06:32:19;;;;;;;14.80;4.47;;;;;;;;;;4878747;29;20101;-65
2022/10/24 06:34:46;;;;;;;16.65;5.28;;;;;;;;;;4878026;29;20494;-65
2022/10/24 06:37:12;;;;;;;14.70;5.10;;;;;;;;;;4879435;29;20430;-64
2022/10/24 06:39:39;;;;;;;11.23;4.93;;;;;;;;;;4877982;29;20570;-65
2022/10/24 06:42:05;;;;;;;16.35;5.10;;;;;;;;;;4878642;29;20068;-65
2022/10/24 06:44:32;;;;;;;15.20;5.63;;;;;;;;;;4879251;29;20694;-65
2022/10/24 06:46:58;;;;;;;18.70;5.80;;;;;;;;;;4878262;29;20041;-65
2022/10/24 06:49:25;;;;;;;18.90;6.70;;;;;;;;;;4877821;29;20052;-64
2022/10/24 06:51:51;;;;;;;18.48;5.95;;;;;;;;;;4877283;29;20120;-65
2022/10/24 06:54:18;;;;;;;19.50;6.93;;;;;;;;;;4879053;29;20045;-64
2022/10/24 06:56:44;;;;;;;17.75;5.47;;;;;;;;;;4878080;29;20520;-65
2022/10/24 06:59:13;;;;;;;18.40;5.75;;;;;;;;;;4879281;29;20105;-65
2022/10/24 07:01:40;;;;;;;21.50;7.20;;;;;;;;;;4878481;29;20461;-65
2022/10/24 07:04:07;;;;;;;19.92;6.30;;;;;;;;;;4879074;29;20068;-65
2022/10/24 07:06:33;;;;;;;24.75;6.95;;;;;;;;;;4878944;29;20049;-65
2022/10/24 07:09:01;;;;;;;21.85;6.57;;;;;;;;;;4878205;29;20455;-65
2022/10/24 07:11:28;;;;;;;18.83;6.03;;;;;;;;;;4878576;29;20049;-64
2022/10/24 07:13:54;;;;;;;14.95;6.03;;;;;;;;;;4877068;29;20045;-65
2022/10/24 07:16:27;;;;;;;18.27;7.00;;;;;;;;;;4877666;29;20055;-66
2022/10/24 07:18:53;;;;;;;14.80;4.93;;;;;;;;;;4878631;29;20130;-65
2022/10/24 07:21:21;;;;;;;24.17;7.05;;;;;;;;;;4878438;29;20582;-64
2022/10/24 07:23:50;;;;;;;15.80;6.22;;;;;;;;;;4876632;29;20078;-65
2022/10/24 07:26:17;;;;;;;20.15;6.40;;;;;;;;;;4878669;29;20037;-64
2022/10/24 07:28:45;;;;;;;11.75;5.55;;;;;;;;;;4878779;29;20494;-66
2022/10/24 07:31:15;;;;;;;13.13;5.60;;;;;;;;;;4878625;29;20463;-65
2022/10/24 07:33:41;;;;;;;17.05;5.15;;;;;;;;;;4877797;29;20052;-65
2022/10/24 07:36:08;;;;;;;16.42;5.40;;;;;;;;;;4877145;29;20578;-65
2022/10/24 07:38:36;;;;;;;15.23;5.35;;;;;;;;;;4877278;29;20558;-65
2022/10/24 07:41:05;;;;;;;17.00;5.15;;;;;;;;;;4877132;29;20056;-65
2022/10/24 07:43:32;;;;;;;15.15;5.38;;;;;;;;;;4876801;29;20053;-65
2022/10/24 07:45:58;;;;;;;14.48;5.45;;;;;;;;;;4877483;29;20135;-64
2022/10/24 07:48:30;;;;;;;16.17;4.90;;;;;;;;;;4878601;29;20108;-65
2022/10/24 07:50:56;;;;;;;13.35;4.60;;;;;;;;;;4878703;29;20105;-65
2022/10/24 07:53:24;;;;;;;16.33;5.22;;;;;;;;;;4876500;29;20139;-65
2022/10/24 07:55:51;;;;;;;9.25;4.10;;;;;;;;;;4877436;29;20053;-66
2022/10/24 07:58:17;;;;;;;11.68;4.50;;;;;;;;;;4877563;29;20049;-65
2022/10/24 08:00:44;;;;;;;12.68;4.88;;;;;;;;;;4878768;29;20093;-64
2022/10/24 08:03:11;;;;;;;13.73;3.72;;;;;;;;;;4876730;29;20053;-65
2022/10/24 08:05:38;;;;;;;12.20;3.90;;;;;;;;;;4878583;29;20090;-65
2022/10/24 08:08:04;;;;;;;13.77;5.18;;;;;;;;;;4861646;29;20056;-65
2022/10/24 08:10:51;;;;;;;8.90;3.58;;;;;;;;;;4878408;29;20415;-66
2022/10/24 08:13:17;;;;;;;12.18;4.10;;;;;;;;;;4876362;29;20119;-65
2022/10/24 08:15:43;;;;;;;8.38;3.60;;;;;;;;;;4876869;29;20097;-65
2022/10/24 08:18:10;;;;;;;11.27;4.50;;;;;;;;;;4876947;29;20101;-64
2022/10/24 08:20:36;;;;;;;9.10;4.10;;;;;;;;;;4878759;29;20049;-66
2022/10/24 08:23:03;;;;;;;9.57;3.42;;;;;;;;;;4881381;29;20123;-65
2022/10/24 08:25:29;;;;;;;8.27;3.30;;;;;;;;;;4880550;29;20450;-66
2022/10/24 08:27:55;;;;;;;10.95;3.70;;;;;;;;;;4881652;29;20049;-65
2022/10/24 08:30:23;;;;;;;12.40;3.55;;;;;;;;;;4881713;29;20101;-65
2022/10/24 08:32:50;;;;;;;9.73;3.47;;;;;;;;;;4879949;29;20045;-65
2022/10/24 08:35:17;;;;;;;10.60;3.45;;;;;;;;;;4881633;29;20044;-65
2022/10/24 08:37:44;;;;;;;10.82;4.22;;;;;;;;;;4881572;29;20045;-65
2022/10/24 08:40:14;;;;;;;8.60;3.80;;;;;;;;;;4881445;29;20113;-65
2022/10/24 08:42:40;;;;;;;7.28;3.50;;;;;;;;;;4880842;29;20041;-65
2022/10/24 08:45:21;;;;;;;6.10;2.90;;;;;;;;;;4881503;29;20048;-65
2022/10/24 08:47:59;;;;;;;7.70;2.83;;;;;;;;;;4880326;29;20108;-65
2022/10/24 08:50:29;;;;;;;8.25;3.03;;;;;;;;;;4880146;29;20055;-65
2022/10/24 08:52:55;;;;;;;15.52;3.92;;;;;;;;;;4879277;29;20068;-65
2022/10/24 08:55:24;;;;;;;8.20;3.47;;;;;;;;;;4881245;29;20073;-64
2022/10/24 08:58:15;;;;;;;9.70;3.17;;;;;;;;;;4880064;29;20049;-64
2022/10/24 09:00:43;;;;;;;10.65;3.67;;;;;;;;;;4881100;29;20514;-64
2022/10/24 09:03:27;;;;;;;9.35;3.05;;;;;;;;;;4880373;29;20093;-64
2022/10/24 09:06:18;;;;;;;5.90;2.78;;;;;;;;;;4881200;29;20048;-67
2022/10/24 09:08:52;;;;;;;8.65;2.80;;;;;;;;;;4881092;29;20093;-66
2022/10/24 09:11:21;;;;;;;5.38;2.92;;;;;;;;;;4879665;29;20048;-64
2022/10/24 09:13:49;;;;;;;8.70;3.05;;;;;;;;;;4880230;29;20100;-65
2022/10/24 09:16:18;;;;;;;5.20;2.33;;;;;;;;;;4879541;29;20172;-64
2022/10/24 09:18:47;;;;;;;6.53;2.88;;;;;;;;;;4879439;29;20100;-64
2022/10/24 09:21:13;;;;;;;7.93;2.90;;;;;;;;;;4880722;29;20451;-64
2022/10/24 09:23:41;;;;;;;6.47;2.38;;;;;;;;;;4881055;29;20570;-67
2022/10/24 09:26:12;;;;;;;8.88;2.60;;;;;;;;;;4880637;29;20043;-66
2022/10/24 09:28:39;;;;;;;4.78;2.72;;;;;;;;;;4864058;29;20060;-66
2022/10/24 09:31:25;;;;;;;8.88;2.63;;;;;;;;;;4880563;29;20392;-66
2022/10/24 09:33:52;;;;;;;10.35;2.47;;;;;;;;;;4880103;29;20056;-65
2022/10/24 09:36:20;;;;;;;7.28;2.70;;;;;;;;;;4879418;29;20060;-65
2022/10/24 09:38:47;;;;;;;9.25;2.88;;;;;;;;;;4882739;29;20045;-66
2022/10/24 09:41:14;;;;;;;7.25;2.88;;;;;;;;;;4883521;29;20048;-66
2022/10/24 09:43:44;;;;;;;8.13;3.00;;;;;;;;;;4880301;29;20498;-65
2022/10/24 09:46:26;;;;;;;7.38;2.45;;;;;;;;;;4880422;29;20045;-65
2022/10/24 09:49:02;;;;;;;8.80;2.90;;;;;;;;;;4879240;29;20502;-65
2022/10/24 09:51:33;;;;;;;10.15;3.05;;;;;;;;;;4880594;29;20105;-65
2022/10/24 09:54:22;;;;;;;7.68;2.30;;;;;;;;;;4880639;29;20057;-66
2022/10/24 09:57:00;;;;;;;6.82;2.80;;;;;;;;;;4878621;29;20049;-65
2022/10/24 09:59:53;;;;;;;9.27;2.97;;;;;;;;;;4880464;29;20053;-66
2022/10/24 10:02:27;;;;;;;6.60;2.25;;;;;;;;;;4878831;29;20057;-65
2022/10/24 10:05:02;;;;;;;9.18;2.88;;;;;;;;;;4878937;29;20128;-67
2022/10/24 10:07:36;;;;;;;5.85;2.63;;;;;;;;;;4879943;29;20073;-65
2022/10/24 10:10:06;;;;;;;4.80;2.38;;;;;;;;;;4878499;29;20566;-65
2022/10/24 10:12:34;;;;;;;6.38;2.42;;;;;;;;;;4877916;29;20540;-64
2022/10/24 10:15:21;;;;;;;7.05;2.05;;;;;;;;;;4879850;29;20105;-65
2022/10/24 10:18:00;;;;;;;7.63;2.22;;;;;;;;;;4877994;29;20053;-66
2022/10/24 10:20:32;;;;;;;5.97;2.50;;;;;;;;;;4879615;29;20056;-64
2022/10/24 10:23:17;;;;;;;6.72;2.35;;;;;;;;;;4877608;29;20053;-67
2022/10/24 10:25:43;;;;;;;7.35;2.30;;;;;;;;;;4879677;29;20049;-66
2022/10/24 10:28:21;;;;;;;5.78;2.20;;;;;;;;;;4879530;29;20041;-66
2022/10/24 10:30:54;;;;;;;6.22;2.45;;;;;;;;;;4879311;29;20056;-67
2022/10/24 10:33:41;;;;;;;3.08;2.10;;;;;;;;;;4878709;29;20101;-66
2022/10/24 10:36:07;;;;;;;7.65;2.22;;;;;;;;;;4879468;29;20052;-66
2022/10/24 10:38:39;;;;;;;4.40;2.13;;;;;;;;;;4879315;29;20049;-65
2022/10/24 10:41:26;;;;;;;7.03;2.10;;;;;;;;;;4879516;29;20108;-65
2022/10/24 10:44:11;;;;;;;6.57;2.15;;;;;;;;;;4876954;29;20121;-66
2022/10/24 10:46:37;;;;;;;5.75;1.58;;;;;;;;;;4880027;29;20055;-66
2022/10/24 10:49:11;;;;;;;7.28;1.88;;;;;;;;;;4878664;29;20045;-65
2022/10/24 10:51:43;;;;;;;6.03;1.60;;;;;;;;;;4880364;29;20081;-65
2022/10/24 10:54:31;;;;;;;3.00;1.70;;;;;;;;;;4878976;29;20053;-65
2022/10/24 10:57:08;;;;;;;5.65;2.15;;;;;;;;;;4878834;29;20105;-66
2022/10/24 10:59:40;;;;;;;7.30;2.20;;;;;;;;;;4879384;29;20060;-66
2022/10/24 11:02:15;;;;;;;3.92;1.70;;;;;;;;;;4877611;29;20053;-66
2022/10/24 11:04:46;;;;;;;5.55;2.10;;;;;;;;;;4863006;29;20094;-67
2022/10/24 11:07:13;;;;;;;5.63;1.70;;;;;;;;;;4878800;29;20052;-64
2022/10/24 11:09:44;;;;;;;4.45;1.73;;;;;;;;;;4879977;29;20077;-66
2022/10/24 11:12:16;;;;;;;5.43;2.30;;;;;;;;;;4877389;29;20053;-66
2022/10/24 11:14:48;;;;;;;6.13;1.88;;;;;;;;;;4878244;29;20078;-66
2022/10/24 11:17:15;;;;;;;6.85;2.05;;;;;;;;;;4878979;29;20049;-65
2022/10/24 11:19:48;;;;;;;5.07;1.92;;;;;;;;;;4877764;29;20414;-65
2022/10/24 11:22:21;;;;;;;8.82;2.03;;;;;;;;;;4877133;29;20044;-66
2022/10/24 11:25:06;;;;;;;4.85;1.50;;;;;;;;;;4878790;29;20052;-65
2022/10/24 11:27:39;;;;;;;8.02;2.38;;;;;;;;;;4878753;29;20049;-65
2022/10/24 11:30:06;;;;;;;7.28;1.65;;;;;;;;;;4877635;29;20048;-65
2022/10/24 11:32:38;;;;;;;6.20;2.08;;;;;;;;;;4877984;29;20044;-65
2022/10/24 11:35:04;;;;;;;5.60;2.20;;;;;;;;;;4878562;29;20052;-65
2022/10/24 11:37:36;;;;;;;7.25;2.40;;;;;;;;;;4878447;29;20100;-66
2022/10/24 11:40:11;;;;;;;4.57;1.73;;;;;;;;;;4877233;29;20045;-65
2022/10/24 11:42:56;;;;;;;7.00;2.00;;;;;;;;;;4878046;29;20402;-66
2022/10/24 11:45:26;;;;;;;7.53;1.83;;;;;;;;;;4878556;29;20395;-66
2022/10/24 11:48:03;;;;;;;3.85;1.75;;;;;;;;;;4878403;29;20048;-64
2022/10/24 11:50:29;;;;;;;8.45;2.00;;;;;;;;;;4877222;29;20045;-65
2022/10/24 11:53:01;;;;;;;7.13;2.28;;;;;;;;;;4877666;29;20045;-64
2022/10/24 11:55:36;;;;;;;4.35;2.08;;;;;;;;;;4880081;29;20490;-65
2022/10/24 11:58:04;;;;;;;7.28;2.53;;;;;;;;;;4882209;29;20108;-65
2022/10/24 12:00:33;;;;;;;8.02;2.55;;;;;;;;;;4880985;29;20045;-65
2022/10/24 12:03:22;;;;;;;4.78;2.60;;;;;;;;;;4881183;29;20048;-64
2022/10/24 12:05:58;;;;;;;8.40;2.13;;;;;;;;;;4880956;29;20049;-65
2022/10/24 12:08:42;;;;;;;4.53;2.03;;;;;;;;;;4880886;29;20719;-65
2022/10/24 12:11:11;;;;;;;6.75;2.08;;;;;;;;;;4882075;29;20045;-65
2022/10/24 12:13:40;;;;;;;4.35;2.05;;;;;;;;;;4880112;29;20055;-63
2022/10/24 12:16:25;;;;;;;5.97;1.77;;;;;;;;;;4881844;29;20047;-63
2022/10/24 12:18:57;;;;;;;4.75;1.77;;;;;;;;;;4881705;29;20466;-65
2022/10/24 12:21:33;;;;;;;4.75;1.60;;;;;;;;;;4881472;29;20049;-65
2022/10/24 12:24:00;;;;;;;2.88;1.88;;;;;;;;;;4880088;29;20042;-65
2022/10/24 12:26:28;;;;;;;3.60;1.63;;;;;;;;;;4880488;29;20069;-65
2022/10/24 12:28:55;;;;;;;4.32;1.73;;;;;;;;;;4889843;23;20054;-64
2022/10/24 12:31:32;;;;;;;5.18;2.28;;;;;;;;;;4860886;29;20062;-65
2022/10/24 12:34:14;;;;;;;4.93;1.88;;;;;;;;;;4861688;29;20490;-65
2022/10/24 12:36:59;;;;;;;4.40;1.58;;;;;;;;;;4863715;29;20050;-65
2022/10/24 12:39:33;;;;;;;5.53;1.88;;;;;;;;;;4863225;29;20057;-64
2022/10/24 12:42:00;;;;;;;5.80;1.85;;;;;;;;;;4862637;29;20094;-65
2022/10/24 12:44:32;;;;;;;6.15;2.38;;;;;;;;;;4864164;29;20129;-64
2022/10/24 12:47:00;;;;;;;5.57;1.53;;;;;;;;;;4863117;29;20045;-64
2022/10/24 12:49:28;;;;;;;11.40;2.20;;;;;;;;;;4862912;29;20045;-64
2022/10/24 12:51:55;;;;;;;4.88;2.00;;;;;;;;;;4861979;29;20455;-65
2022/10/24 12:54:38;;;;;;;3.00;1.30;;;;;;;;;;4863207;29;20045;-64
2022/10/24 12:57:04;;;;;;;4.70;1.60;;;;;;;;;;4864049;29;20045;-64
2022/10/24 12:59:32;;;;;;;4.30;1.50;;;;;;;;;;4862153;29;20060;-64
2022/10/24 13:02:13;;;;;;;5.43;1.50;;;;;;;;;;4861367;29;20530;-65
2022/10/24 13:04:40;;;;;;;5.63;1.67;;;;;;;;;;4864960;29;20049;-66
2022/10/24 13:07:17;;;;;;;4.60;1.90;;;;;;;;;;4865459;29;20042;-65
2022/10/24 13:09:59;;;;;;;3.72;1.23;;;;;;;;;;4865043;29;20140;-64
2022/10/24 13:12:39;;;;;;;4.70;1.58;;;;;;;;;;4848600;29;20057;-63
2022/10/24 13:15:17;;;;;;;4.22;1.77;;;;;;;;;;4865947;29;20057;-66
2022/10/24 13:17:46;;;;;;;3.90;1.52;;;;;;;;;;4866108;29;20046;-63
2022/10/24 13:20:18;;;;;;;2.78;1.35;;;;;;;;;;4863374;29;20055;-63
2022/10/24 13:22:45;;;;;;;4.13;1.58;;;;;;;;;;4861480;29;20082;-63
2022/10/24 13:25:44;;;;;;;3.20;1.50;;;;;;;;;;4862730;29;20070;-63
2022/10/24 13:28:23;;;;;;;5.22;1.95;;;;;;;;;;4852020;29;20081;-63
2022/10/24 13:30:52;;;;;;;3.47;1.10;;;;;;;;;;4861886;29;20045;-65
2022/10/24 13:33:27;;;;;;;3.95;0.90;;;;;;;;;;4861738;29;20418;-65
2022/10/24 13:36:18;;;;;;;4.10;1.55;;;;;;;;;;4862262;29;20387;-65
2022/10/24 13:38:59;;;;;;;3.83;1.60;;;;;;;;;;4861652;29;20081;-65
2022/10/24 13:41:25;;;;;;;3.78;1.35;;;;;;;;;;4862568;29;20395;-65
2022/10/24 13:43:54;;;;;;;4.53;1.25;;;;;;;;;;4861587;29;20460;-65
2022/10/24 13:46:27;;;;;;;4.82;1.30;;;;;;;;;;4862509;29;20049;-64
2022/10/24 13:48:54;;;;;;;4.20;1.10;;;;;;;;;;4861236;29;20707;-65
2022/10/24 13:51:27;;;;;;;3.50;1.20;;;;;;;;;;4862005;29;20056;-65
2022/10/24 13:53:54;;;;;;;;;;;;;;;;;;4860478;29;20059;-65
2022/10/24 13:56:20;;;;;;;4.53;1.42;;;;;;;;;;4860486;29;19924;-65
2022/10/24 13:58:47;;;;;;;5.30;2.22;;;;;;;;;;4860549;29;20077;-65
2022/10/24 14:01:25;;;;;;;3.88;1.23;;;;;;;;;;4861534;29;20054;-65
2022/10/24 14:03:53;;;;;;;1.77;1.05;;;;;;;;;;4860941;29;20098;-65
2022/10/24 14:06:27;;;;;;;3.55;1.25;;;;;;;;;;4861525;29;20045;-65
2022/10/24 14:08:54;;;;;;;3.47;1.30;;;;;;;;;;4860348;29;20049;-64
2022/10/24 14:11:32;;;;;;;3.40;1.80;;;;;;;;;;4861492;29;20050;-65
2022/10/24 14:14:00;;;;;;;2.92;1.00;;;;;;;;;;4860958;29;20049;-64
2022/10/24 14:16:33;;;;;;;3.90;1.52;;;;;;;;;;4861349;29;20113;-64
2022/10/24 14:19:15;;;;;;;4.40;1.60;;;;;;;;;;4861222;29;20137;-63
2022/10/24 14:21:47;;;;;;;6.18;1.48;;;;;;;;;;4861019;29;20041;-64
2022/10/24 14:24:21;;;;;;;4.07;1.20;;;;;;;;;;4861199;29;20070;-63
2022/10/24 14:26:50;;;;;;;3.10;1.20;;;;;;;;;;4861557;29;20387;-64
2022/10/24 14:29:26;;;;;;;2.17;1.52;;;;;;;;;;4861450;29;20053;-64
2022/10/24 14:31:53;;;;;;;4.28;1.50;;;;;;;;;;4860926;29;20057;-64
2022/10/24 14:34:20;;;;;;;4.78;1.40;;;;;;;;;;4861510;29;20414;-64
2022/10/24 14:36:47;;;;;;;3.78;1.55;;;;;;;;;;4861690;29;20105;-64
2022/10/24 14:39:17;;;;;;;3.20;0.93;;;;;;;;;;4860047;29;20113;-64
2022/10/24 14:41:43;;;;;;;2.65;1.30;;;;;;;;;;4859489;29;20053;-64
2022/10/24 14:44:12;;;;;;;5.82;1.13;;;;;;;;;;4860052;29;20117;-64
2022/10/24 14:46:40;;;;;;;3.45;1.20;;;;;;;;;;4860990;29;20049;-64
2022/10/24 14:49:18;;;;;;;5.50;1.23;;;;;;;;;;4861038;29;20084;-64
2022/10/24 14:51:45;;;;;;;6.20;1.42;;;;;;;;;;4859299;29;20102;-64
2022/10/24 14:54:20;;;;;;;3.95;1.58;;;;;;;;;;4861427;29;20136;-64
2022/10/24 14:56:47;;;;;;;1.88;1.10;;;;;;;;;;4861516;29;20102;-65